sensor_id;sensor_type;location;lat;lon;timestamp;temperature;humidity
20446;DHT22;10382;49.140;9.234;2023-04-06T00:00:10;3.20;99.90
20446;DHT22;10382;49.140;9.234;2023-04-06T00:02:38;3.10;99.90
20446;DHT22;10382;49.140;9.234;2023-04-06T00:05:05;3.10;99.90
20446;DHT22;10382;49.140;9.234;2023-04-06T00:07:34;3.00;99.90
20446;DHT22;10382;49.140;9.234;2023-04-06T00:10:04;3.00;99.90
20446;DHT22;10382;49.140;9.234;2023-04-06T00:12:31;2.90;99.90
20446;DHT22;10382;49.140;9.234;2023-04-06T00:14:58;2.80;99.90
20446;DHT22;10382;49.140;9.234;2023-04-06T00:17:26;2.90;99.90
20446;DHT22;10382;49.140;9.234;2023-04-06T00:19:53;3.00;99.90
20446;DHT22;10382;49.140;9.234;2023-04-06T00:22:20;3.10;99.90
20446;DHT22;10382;49.140;9.234;2023-04-06T00:24:47;3.20;99.90
20446;DHT22;10382;49.140;9.234;2023-04-06T00:27:16;3.20;99.90
20446;DHT22;10382;49.140;9.234;2023-04-06T00:29:44;3.30;99.90
20446;DHT22;10382;49.140;9.234;2023-04-06T00:32:11;3.40;99.90
20446;DHT22;10382;49.140;9.234;2023-04-06T00:34:38;3.40;99.90
20446;DHT22;10382;49.140;9.234;2023-04-06T00:37:05;3.20;99.90
20446;DHT22;10382;49.140;9.234;2023-04-06T00:39:31;3.10;99.90
20446;DHT22;10382;49.140;9.234;2023-04-06T00:41:58;3.00;99.90
20446;DHT22;10382;49.140;9.234;2023-04-06T00:44:27;2.90;99.90
20446;DHT22;10382;49.140;9.234;2023-04-06T00:46:54;2.90;99.90
20446;DHT22;10382;49.140;9.234;2023-04-06T00:49:21;2.90;99.90
20446;DHT22;10382;49.140;9.234;2023-04-06T00:51:48;2.90;99.90
20446;DHT22;10382;49.140;9.234;2023-04-06T00:54:15;3.00;99.90
20446;DHT22;10382;49.140;9.234;2023-04-06T00:56:42;3.10;99.90
20446;DHT22;10382;49.140;9.234;2023-04-06T00:59:10;3.10;99.90
20446;DHT22;10382;49.140;9.234;2023-04-06T01:01:38;3.10;99.90
20446;DHT22;10382;49.140;9.234;2023-04-06T01:04:05;3.20;99.90
20446;DHT22;10382;49.140;9.234;2023-04-06T01:06:32;3.20;99.90
20446;DHT22;10382;49.140;9.234;2023-04-06T01:08:59;3.30;99.90
20446;DHT22;10382;49.140;9.234;2023-04-06T01:11:27;3.30;99.90
20446;DHT22;10382;49.140;9.234;2023-04-06T01:13:54;3.20;99.90
20446;DHT22;10382;49.140;9.234;2023-04-06T01:16:21;3.20;99.90
20446;DHT22;10382;49.140;9.234;2023-04-06T01:18:50;3.00;99.90
20446;DHT22;10382;49.140;9.234;2023-04-06T01:21:17;3.00;99.90
20446;DHT22;10382;49.140;9.234;2023-04-06T01:23:45;3.00;99.90
20446;DHT22;10382;49.140;9.234;2023-04-06T01:26:13;3.00;99.90
20446;DHT22;10382;49.140;9.234;2023-04-06T01:28:40;3.00;99.90
20446;DHT22;10382;49.140;9.234;2023-04-06T01:31:08;2.90;99.90
20446;DHT22;10382;49.140;9.234;2023-04-06T01:33:35;2.80;99.90
20446;DHT22;10382;49.140;9.234;2023-04-06T01:36:02;2.70;99.90
20446;DHT22;10382;49.140;9.234;2023-04-06T01:38:29;2.70;99.90
20446;DHT22;10382;49.140;9.234;2023-04-06T01:40:58;2.70;99.90
20446;DHT22;10382;49.140;9.234;2023-04-06T01:43:25;2.80;99.90
20446;DHT22;10382;49.140;9.234;2023-04-06T01:45:52;2.80;99.90
20446;DHT22;10382;49.140;9.234;2023-04-06T01:48:19;2.80;99.90
20446;DHT22;10382;49.140;9.234;2023-04-06T01:50:45;2.90;99.90
20446;DHT22;10382;49.140;9.234;2023-04-06T01:53:12;3.00;99.90
20446;DHT22;10382;49.140;9.234;2023-04-06T01:55:40;3.00;99.90
20446;DHT22;10382;49.140;9.234;2023-04-06T01:58:08;3.10;99.90
20446;DHT22;10382;49.140;9.234;2023-04-06T02:00:35;3.00;99.90
20446;DHT22;10382;49.140;9.234;2023-04-06T02:03:02;3.00;99.90
20446;DHT22;10382;49.140;9.234;2023-04-06T02:05:31;3.00;99.90
20446;DHT22;10382;49.140;9.234;2023-04-06T02:08:03;3.00;99.90
20446;DHT22;10382;49.140;9.234;2023-04-06T02:10:30;2.90;99.90
20446;DHT22;10382;49.140;9.234;2023-04-06T02:12:57;2.80;99.90
20446;DHT22;10382;49.140;9.234;2023-04-06T02:15:26;2.70;99.90
20446;DHT22;10382;49.140;9.234;2023-04-06T02:17:53;2.60;99.90
20446;DHT22;10382;49.140;9.234;2023-04-06T02:20:20;2.70;99.90
20446;DHT22;10382;49.140;9.234;2023-04-06T02:22:47;2.60;99.90
20446;DHT22;10382;49.140;9.234;2023-04-06T02:25:14;2.60;99.90
20446;DHT22;10382;49.140;9.234;2023-04-06T02:27:41;2.60;99.90
20446;DHT22;10382;49.140;9.234;2023-04-06T02:30:09;2.70;99.90
20446;DHT22;10382;49.140;9.234;2023-04-06T02:32:38;2.70;99.90
20446;DHT22;10382;49.140;9.234;2023-04-06T02:35:05;2.70;99.90
20446;DHT22;10382;49.140;9.234;2023-04-06T02:37:32;2.80;99.90
20446;DHT22;10382;49.140;9.234;2023-04-06T02:39:59;2.90;99.90
20446;DHT22;10382;49.140;9.234;2023-04-06T02:42:26;3.00;99.90
20446;DHT22;10382;49.140;9.234;2023-04-06T02:44:53;3.10;99.90
20446;DHT22;10382;49.140;9.234;2023-04-06T02:47:20;3.20;99.90
20446;DHT22;10382;49.140;9.234;2023-04-06T02:49:48;3.10;99.90
20446;DHT22;10382;49.140;9.234;2023-04-06T02:52:15;3.10;99.90
20446;DHT22;10382;49.140;9.234;2023-04-06T02:54:43;3.20;99.90
20446;DHT22;10382;49.140;9.234;2023-04-06T02:57:10;3.20;99.90
20446;DHT22;10382;49.140;9.234;2023-04-06T02:59:37;3.10;99.90
20446;DHT22;10382;49.140;9.234;2023-04-06T03:02:04;3.10;99.90
20446;DHT22;10382;49.140;9.234;2023-04-06T03:04:31;3.10;99.90
20446;DHT22;10382;49.140;9.234;2023-04-06T03:06:59;3.10;99.90
20446;DHT22;10382;49.140;9.234;2023-04-06T03:09:26;3.00;99.90
20446;DHT22;10382;49.140;9.234;2023-04-06T03:11:53;3.00;99.90
20446;DHT22;10382;49.140;9.234;2023-04-06T03:14:20;3.00;99.90
20446;DHT22;10382;49.140;9.234;2023-04-06T03:16:48;3.00;99.90
20446;DHT22;10382;49.140;9.234;2023-04-06T03:19:15;3.00;99.90
20446;DHT22;10382;49.140;9.234;2023-04-06T03:21:42;3.00;99.90
20446;DHT22;10382;49.140;9.234;2023-04-06T03:24:10;3.00;99.90
20446;DHT22;10382;49.140;9.234;2023-04-06T03:26:38;2.80;99.90
20446;DHT22;10382;49.140;9.234;2023-04-06T03:29:05;2.70;99.90
20446;DHT22;10382;49.140;9.234;2023-04-06T03:31:32;2.60;99.90
20446;DHT22;10382;49.140;9.234;2023-04-06T03:33:59;2.50;99.90
20446;DHT22;10382;49.140;9.234;2023-04-06T03:36:26;2.40;99.90
20446;DHT22;10382;49.140;9.234;2023-04-06T03:38:53;2.50;99.90
20446;DHT22;10382;49.140;9.234;2023-04-06T03:41:21;2.40;99.90
20446;DHT22;10382;49.140;9.234;2023-04-06T03:43:48;2.40;99.90
20446;DHT22;10382;49.140;9.234;2023-04-06T03:46:16;2.30;99.90
20446;DHT22;10382;49.140;9.234;2023-04-06T03:48:43;2.40;99.90
20446;DHT22;10382;49.140;9.234;2023-04-06T03:51:10;2.40;99.90
20446;DHT22;10382;49.140;9.234;2023-04-06T03:53:37;2.50;99.90
20446;DHT22;10382;49.140;9.234;2023-04-06T03:56:05;2.50;99.90
20446;DHT22;10382;49.140;9.234;2023-04-06T03:58:33;2.50;99.90
20446;DHT22;10382;49.140;9.234;2023-04-06T04:01:00;2.50;99.90
20446;DHT22;10382;49.140;9.234;2023-04-06T04:03:27;2.50;99.90
20446;DHT22;10382;49.140;9.234;2023-04-06T04:05:54;2.50;99.90
20446;DHT22;10382;49.140;9.234;2023-04-06T04:08:21;2.50;99.90
20446;DHT22;10382;49.140;9.234;2023-04-06T04:10:48;2.50;99.90
20446;DHT22;10382;49.140;9.234;2023-04-06T04:13:15;2.60;99.90
20446;DHT22;10382;49.140;9.234;2023-04-06T04:15:44;2.60;99.90
20446;DHT22;10382;49.140;9.234;2023-04-06T04:18:13;2.60;99.90
20446;DHT22;10382;49.140;9.234;2023-04-06T04:20:39;2.70;99.90
20446;DHT22;10382;49.140;9.234;2023-04-06T04:23:06;2.70;99.90
20446;DHT22;10382;49.140;9.234;2023-04-06T04:25:33;2.70;99.90
20446;DHT22;10382;49.140;9.234;2023-04-06T04:28:00;2.60;99.90
20446;DHT22;10382;49.140;9.234;2023-04-06T04:30:27;2.50;99.90
20446;DHT22;10382;49.140;9.234;2023-04-06T04:32:55;2.40;99.90
20446;DHT22;10382;49.140;9.234;2023-04-06T04:35:22;2.30;99.90
20446;DHT22;10382;49.140;9.234;2023-04-06T04:37:49;2.10;99.90
20446;DHT22;10382;49.140;9.234;2023-04-06T04:40:16;1.90;99.90
20446;DHT22;10382;49.140;9.234;2023-04-06T04:42:43;1.70;99.90
20446;DHT22;10382;49.140;9.234;2023-04-06T04:45:10;1.70;99.90
20446;DHT22;10382;49.140;9.234;2023-04-06T04:47:38;1.70;99.90
20446;DHT22;10382;49.140;9.234;2023-04-06T04:50:07;1.70;99.90
20446;DHT22;10382;49.140;9.234;2023-04-06T04:52:34;1.80;99.90
20446;DHT22;10382;49.140;9.234;2023-04-06T04:55:01;1.90;99.90
20446;DHT22;10382;49.140;9.234;2023-04-06T04:57:28;2.00;99.90
20446;DHT22;10382;49.140;9.234;2023-04-06T04:59:55;2.00;99.90
20446;DHT22;10382;49.140;9.234;2023-04-06T05:02:22;2.10;99.90
20446;DHT22;10382;49.140;9.234;2023-04-06T05:04:49;2.20;99.90
20446;DHT22;10382;49.140;9.234;2023-04-06T05:07:17;2.20;99.90
20446;DHT22;10382;49.140;9.234;2023-04-06T05:09:46;2.20;99.90
20446;DHT22;10382;49.140;9.234;2023-04-06T05:12:13;2.30;99.90
20446;DHT22;10382;49.140;9.234;2023-04-06T05:14:40;2.30;99.90
20446;DHT22;10382;49.140;9.234;2023-04-06T05:17:07;2.30;99.90
20446;DHT22;10382;49.140;9.234;2023-04-06T05:19:34;2.30;99.90
20446;DHT22;10382;49.140;9.234;2023-04-06T05:22:01;2.30;99.90
20446;DHT22;10382;49.140;9.234;2023-04-06T05:24:29;2.40;99.90
20446;DHT22;10382;49.140;9.234;2023-04-06T05:26:56;2.30;99.90
20446;DHT22;10382;49.140;9.234;2023-04-06T05:29:24;2.40;99.90
20446;DHT22;10382;49.140;9.234;2023-04-06T05:31:51;2.50;99.90
20446;DHT22;10382;49.140;9.234;2023-04-06T05:34:18;2.60;99.90
20446;DHT22;10382;49.140;9.234;2023-04-06T05:36:45;2.80;99.90
20446;DHT22;10382;49.140;9.234;2023-04-06T05:39:13;2.90;99.90
20446;DHT22;10382;49.140;9.234;2023-04-06T05:41:41;3.00;99.90
20446;DHT22;10382;49.140;9.234;2023-04-06T05:44:08;3.10;99.90
20446;DHT22;10382;49.140;9.234;2023-04-06T05:46:35;3.20;99.90
20446;DHT22;10382;49.140;9.234;2023-04-06T05:49:02;3.40;99.90
20446;DHT22;10382;49.140;9.234;2023-04-06T05:51:29;3.40;99.90
20446;DHT22;10382;49.140;9.234;2023-04-06T05:53:56;3.50;99.90
20446;DHT22;10382;49.140;9.234;2023-04-06T05:56:23;3.60;99.90
20446;DHT22;10382;49.140;9.234;2023-04-06T05:58:52;3.80;99.90
20446;DHT22;10382;49.140;9.234;2023-04-06T06:01:19;4.00;99.90
20446;DHT22;10382;49.140;9.234;2023-04-06T06:03:46;4.30;99.90
20446;DHT22;10382;49.140;9.234;2023-04-06T06:06:13;4.40;99.90
20446;DHT22;10382;49.140;9.234;2023-04-06T06:08:40;4.70;99.90
20446;DHT22;10382;49.140;9.234;2023-04-06T06:11:06;4.90;99.90
20446;DHT22;10382;49.140;9.234;2023-04-06T06:13:33;5.30;99.90
20446;DHT22;10382;49.140;9.234;2023-04-06T06:16:02;5.50;99.90
20446;DHT22;10382;49.140;9.234;2023-04-06T06:18:30;5.90;99.90
20446;DHT22;10382;49.140;9.234;2023-04-06T06:20:57;6.20;99.90
20446;DHT22;10382;49.140;9.234;2023-04-06T06:23:24;6.60;99.90
20446;DHT22;10382;49.140;9.234;2023-04-06T06:25:51;6.90;99.90
20446;DHT22;10382;49.140;9.234;2023-04-06T06:28:19;7.20;99.90
20446;DHT22;10382;49.140;9.234;2023-04-06T06:30:46;7.50;99.90
20446;DHT22;10382;49.140;9.234;2023-04-06T06:33:14;7.70;99.90
20446;DHT22;10382;49.140;9.234;2023-04-06T06:35:41;8.00;99.90
20446;DHT22;10382;49.140;9.234;2023-04-06T06:38:08;8.30;99.90
20446;DHT22;10382;49.140;9.234;2023-04-06T06:40:35;8.60;99.90
20446;DHT22;10382;49.140;9.234;2023-04-06T06:43:02;9.00;99.90
20446;DHT22;10382;49.140;9.234;2023-04-06T06:45:29;9.30;99.90
20446;DHT22;10382;49.140;9.234;2023-04-06T06:47:56;9.60;99.90
20446;DHT22;10382;49.140;9.234;2023-04-06T06:50:24;10.00;98.40
20446;DHT22;10382;49.140;9.234;2023-04-06T06:52:51;10.30;96.70
20446;DHT22;10382;49.140;9.234;2023-04-06T06:55:18;10.70;95.30
20446;DHT22;10382;49.140;9.234;2023-04-06T06:57:45;11.10;93.20
20446;DHT22;10382;49.140;9.234;2023-04-06T07:00:13;11.50;91.20
20446;DHT22;10382;49.140;9.234;2023-04-06T07:02:41;11.70;89.90
20446;DHT22;10382;49.140;9.234;2023-04-06T07:05:08;12.10;87.50
20446;DHT22;10382;49.140;9.234;2023-04-06T07:07:36;12.40;82.60
20446;DHT22;10382;49.140;9.234;2023-04-06T07:10:04;12.70;80.70
20446;DHT22;10382;49.140;9.234;2023-04-06T07:12:31;12.90;77.90
20446;DHT22;10382;49.140;9.234;2023-04-06T07:14:58;13.20;74.10
20446;DHT22;10382;49.140;9.234;2023-04-06T07:17:25;13.50;72.40
20446;DHT22;10382;49.140;9.234;2023-04-06T07:19:52;13.70;69.90
20446;DHT22;10382;49.140;9.234;2023-04-06T07:22:19;14.00;68.30
20446;DHT22;10382;49.140;9.234;2023-04-06T07:24:47;14.10;67.10
20446;DHT22;10382;49.140;9.234;2023-04-06T07:27:14;14.30;65.90
20446;DHT22;10382;49.140;9.234;2023-04-06T07:29:42;14.70;64.60
20446;DHT22;10382;49.140;9.234;2023-04-06T07:32:08;15.10;62.50
20446;DHT22;10382;49.140;9.234;2023-04-06T07:34:35;15.40;61.20
20446;DHT22;10382;49.140;9.234;2023-04-06T07:37:02;15.80;59.40
20446;DHT22;10382;49.140;9.234;2023-04-06T07:39:29;16.00;58.40
20446;DHT22;10382;49.140;9.234;2023-04-06T07:41:58;16.30;57.40
20446;DHT22;10382;49.140;9.234;2023-04-06T07:44:25;16.60;56.40
20446;DHT22;10382;49.140;9.234;2023-04-06T07:46:51;16.90;55.20
20446;DHT22;10382;49.140;9.234;2023-04-06T07:49:18;17.10;54.40
20446;DHT22;10382;49.140;9.234;2023-04-06T07:51:46;17.40;54.00
20446;DHT22;10382;49.140;9.234;2023-04-06T07:54:13;17.70;52.70
20446;DHT22;10382;49.140;9.234;2023-04-06T07:56:40;17.90;52.50
20446;DHT22;10382;49.140;9.234;2023-04-06T07:59:08;18.20;51.30
20446;DHT22;10382;49.140;9.234;2023-04-06T08:01:37;18.50;50.40
20446;DHT22;10382;49.140;9.234;2023-04-06T08:04:04;18.60;49.90
20446;DHT22;10382;49.140;9.234;2023-04-06T08:06:31;18.70;49.30
20446;DHT22;10382;49.140;9.234;2023-04-06T08:08:58;18.60;49.10
20446;DHT22;10382;49.140;9.234;2023-04-06T08:11:25;18.40;48.90
20446;DHT22;10382;49.140;9.234;2023-04-06T08:13:52;18.10;48.70
20446;DHT22;10382;49.140;9.234;2023-04-06T08:16:20;17.80;49.30
20446;DHT22;10382;49.140;9.234;2023-04-06T08:18:47;17.40;49.40
20446;DHT22;10382;49.140;9.234;2023-04-06T08:21:14;17.00;49.70
20446;DHT22;10382;49.140;9.234;2023-04-06T08:23:41;16.90;50.30
20446;DHT22;10382;49.140;9.234;2023-04-06T08:26:08;16.60;50.00
20446;DHT22;10382;49.140;9.234;2023-04-06T08:28:35;16.30;50.90
20446;DHT22;10382;49.140;9.234;2023-04-06T08:31:04;16.10;51.10
20446;DHT22;10382;49.140;9.234;2023-04-06T08:33:33;16.20;51.30
20446;DHT22;10382;49.140;9.234;2023-04-06T08:36:10;16.30;51.80
20446;DHT22;10382;49.140;9.234;2023-04-06T08:38:37;16.40;51.40
20446;DHT22;10382;49.140;9.234;2023-04-06T08:41:08;16.50;51.10
20446;DHT22;10382;49.140;9.234;2023-04-06T08:43:42;16.70;50.60
20446;DHT22;10382;49.140;9.234;2023-04-06T08:46:10;16.90;51.30
20446;DHT22;10382;49.140;9.234;2023-04-06T08:48:40;17.10;51.40
20446;DHT22;10382;49.140;9.234;2023-04-06T08:51:08;17.40;50.30
20446;DHT22;10382;49.140;9.234;2023-04-06T08:53:35;17.60;50.20
20446;DHT22;10382;49.140;9.234;2023-04-06T08:56:03;17.90;49.70
20446;DHT22;10382;49.140;9.234;2023-04-06T08:58:35;18.10;48.60
20446;DHT22;10382;49.140;9.234;2023-04-06T09:01:06;18.50;47.90
20446;DHT22;10382;49.140;9.234;2023-04-06T09:03:36;18.80;47.60
20446;DHT22;10382;49.140;9.234;2023-04-06T09:06:06;19.10;46.60
20446;DHT22;10382;49.140;9.234;2023-04-06T09:08:33;19.40;46.10
20446;DHT22;10382;49.140;9.234;2023-04-06T09:11:00;19.70;45.60
20446;DHT22;10382;49.140;9.234;2023-04-06T09:13:28;20.10;45.10
20446;DHT22;10382;49.140;9.234;2023-04-06T09:16:01;20.50;44.20
20446;DHT22;10382;49.140;9.234;2023-04-06T09:18:30;21.00;44.30
20446;DHT22;10382;49.140;9.234;2023-04-06T09:20:59;21.40;43.70
20446;DHT22;10382;49.140;9.234;2023-04-06T09:23:27;21.60;42.60
20446;DHT22;10382;49.140;9.234;2023-04-06T09:26:05;21.60;41.40
20446;DHT22;10382;49.140;9.234;2023-04-06T09:28:44;21.40;41.10
20446;DHT22;10382;49.140;9.234;2023-04-06T09:31:12;21.50;41.50
20446;DHT22;10382;49.140;9.234;2023-04-06T09:33:43;21.80;41.30
20446;DHT22;10382;49.140;9.234;2023-04-06T09:36:10;22.00;41.40
20446;DHT22;10382;49.140;9.234;2023-04-06T09:38:52;22.40;40.50
20446;DHT22;10382;49.140;9.234;2023-04-06T09:41:23;22.80;39.70
20446;DHT22;10382;49.140;9.234;2023-04-06T09:43:51;23.30;39.10
20446;DHT22;10382;49.140;9.234;2023-04-06T09:46:21;23.30;37.60
20446;DHT22;10382;49.140;9.234;2023-04-06T09:48:49;23.60;37.90
20446;DHT22;10382;49.140;9.234;2023-04-06T09:51:18;23.80;37.60
20446;DHT22;10382;49.140;9.234;2023-04-06T09:53:51;24.10;36.90
20446;DHT22;10382;49.140;9.234;2023-04-06T09:56:24;24.30;35.60
20446;DHT22;10382;49.140;9.234;2023-04-06T09:58:56;23.90;34.90
20446;DHT22;10382;49.140;9.234;2023-04-06T10:01:28;23.10;34.90
20446;DHT22;10382;49.140;9.234;2023-04-06T10:04:01;22.90;35.60
20446;DHT22;10382;49.140;9.234;2023-04-06T10:06:33;22.70;36.00
20446;DHT22;10382;49.140;9.234;2023-04-06T10:09:04;23.00;36.40
20446;DHT22;10382;49.140;9.234;2023-04-06T10:11:33;23.30;35.50
20446;DHT22;10382;49.140;9.234;2023-04-06T10:14:00;23.30;34.70
20446;DHT22;10382;49.140;9.234;2023-04-06T10:16:28;22.40;34.80
20446;DHT22;10382;49.140;9.234;2023-04-06T10:19:00;21.50;35.20
20446;DHT22;10382;49.140;9.234;2023-04-06T10:21:29;20.90;35.90
20446;DHT22;10382;49.140;9.234;2023-04-06T10:24:00;20.80;36.30
20446;DHT22;10382;49.140;9.234;2023-04-06T10:26:28;21.10;36.30
20446;DHT22;10382;49.140;9.234;2023-04-06T10:29:02;21.50;35.90
20446;DHT22;10382;49.140;9.234;2023-04-06T10:31:29;21.60;35.50
20446;DHT22;10382;49.140;9.234;2023-04-06T10:33:58;21.90;35.70
20446;DHT22;10382;49.140;9.234;2023-04-06T10:36:27;22.40;35.30
20446;DHT22;10382;49.140;9.234;2023-04-06T10:38:55;22.50;34.10
20446;DHT22;10382;49.140;9.234;2023-04-06T10:41:23;22.00;33.50
20446;DHT22;10382;49.140;9.234;2023-04-06T10:43:56;21.50;33.80
20446;DHT22;10382;49.140;9.234;2023-04-06T10:46:28;21.20;34.20
20446;DHT22;10382;49.140;9.234;2023-04-06T10:48:55;21.60;32.90
20446;DHT22;10382;49.140;9.234;2023-04-06T10:51:25;22.10;32.40
20446;DHT22;10382;49.140;9.234;2023-04-06T10:53:54;22.40;32.10
20446;DHT22;10382;49.140;9.234;2023-04-06T10:56:23;22.90;33.00
20446;DHT22;10382;49.140;9.234;2023-04-06T10:58:53;23.30;32.90
20446;DHT22;10382;49.140;9.234;2023-04-06T11:01:23;23.70;32.20
20446;DHT22;10382;49.140;9.234;2023-04-06T11:03:53;24.20;32.40
20446;DHT22;10382;49.140;9.234;2023-04-06T11:06:21;24.20;31.70
20446;DHT22;10382;49.140;9.234;2023-04-06T11:08:49;24.20;32.40
20446;DHT22;10382;49.140;9.234;2023-04-06T11:11:17;24.40;32.20
20446;DHT22;10382;49.140;9.234;2023-04-06T11:13:46;24.80;31.40
20446;DHT22;10382;49.140;9.234;2023-04-06T11:16:14;24.60;30.30
20446;DHT22;10382;49.140;9.234;2023-04-06T11:18:50;23.50;30.40
20446;DHT22;10382;49.140;9.234;2023-04-06T11:21:18;22.60;31.40
20446;DHT22;10382;49.140;9.234;2023-04-06T11:23:45;22.30;32.10
20446;DHT22;10382;49.140;9.234;2023-04-06T11:26:12;22.30;32.20
20446;DHT22;10382;49.140;9.234;2023-04-06T11:28:40;22.50;31.80
20446;DHT22;10382;49.140;9.234;2023-04-06T11:31:07;22.40;31.70
20446;DHT22;10382;49.140;9.234;2023-04-06T11:33:36;22.30;31.90
20446;DHT22;10382;49.140;9.234;2023-04-06T11:36:05;22.30;31.00
20446;DHT22;10382;49.140;9.234;2023-04-06T11:38:32;21.40;31.30
20446;DHT22;10382;49.140;9.234;2023-04-06T11:41:01;21.40;32.20
20446;DHT22;10382;49.140;9.234;2023-04-06T11:43:28;21.60;32.70
20446;DHT22;10382;49.140;9.234;2023-04-06T11:46:03;21.90;32.70
20446;DHT22;10382;49.140;9.234;2023-04-06T11:48:31;22.20;31.10
20446;DHT22;10382;49.140;9.234;2023-04-06T11:50:59;21.70;31.50
20446;DHT22;10382;49.140;9.234;2023-04-06T11:53:28;21.30;32.40
20446;DHT22;10382;49.140;9.234;2023-04-06T11:55:56;21.10;31.80
20446;DHT22;10382;49.140;9.234;2023-04-06T11:58:23;21.20;32.20
20446;DHT22;10382;49.140;9.234;2023-04-06T12:00:50;21.20;31.30
20446;DHT22;10382;49.140;9.234;2023-04-06T12:03:17;21.00;30.70
20446;DHT22;10382;49.140;9.234;2023-04-06T12:05:44;20.60;30.90
20446;DHT22;10382;49.140;9.234;2023-04-06T12:08:11;20.40;30.60
20446;DHT22;10382;49.140;9.234;2023-04-06T12:10:40;20.20;30.90
20446;DHT22;10382;49.140;9.234;2023-04-06T12:13:07;20.20;31.20
20446;DHT22;10382;49.140;9.234;2023-04-06T12:15:33;20.20;32.10
20446;DHT22;10382;49.140;9.234;2023-04-06T12:18:01;20.40;32.20
20446;DHT22;10382;49.140;9.234;2023-04-06T12:20:28;20.90;32.30
20446;DHT22;10382;49.140;9.234;2023-04-06T12:22:55;21.40;31.80
20446;DHT22;10382;49.140;9.234;2023-04-06T12:25:22;21.20;30.60
20446;DHT22;10382;49.140;9.234;2023-04-06T12:27:50;20.60;30.50
20446;DHT22;10382;49.140;9.234;2023-04-06T12:30:17;20.40;31.00
20446;DHT22;10382;49.140;9.234;2023-04-06T12:32:45;19.80;31.30
20446;DHT22;10382;49.140;9.234;2023-04-06T12:35:13;19.20;32.30
20446;DHT22;10382;49.140;9.234;2023-04-06T12:37:41;19.00;33.40
20446;DHT22;10382;49.140;9.234;2023-04-06T12:40:09;19.20;33.00
20446;DHT22;10382;49.140;9.234;2023-04-06T12:42:38;19.40;33.20
20446;DHT22;10382;49.140;9.234;2023-04-06T12:45:09;19.40;32.40
20446;DHT22;10382;49.140;9.234;2023-04-06T12:47:36;19.40;32.30
20446;DHT22;10382;49.140;9.234;2023-04-06T12:50:04;19.40;32.80
20446;DHT22;10382;49.140;9.234;2023-04-06T12:52:32;19.70;33.70
20446;DHT22;10382;49.140;9.234;2023-04-06T12:55:00;20.10;33.50
20446;DHT22;10382;49.140;9.234;2023-04-06T12:57:28;20.50;33.30
20446;DHT22;10382;49.140;9.234;2023-04-06T12:59:55;20.50;33.90
20446;DHT22;10382;49.140;9.234;2023-04-06T13:02:23;20.80;34.00
20446;DHT22;10382;49.140;9.234;2023-04-06T13:04:50;21.20;33.80
20446;DHT22;10382;49.140;9.234;2023-04-06T13:07:18;21.40;32.40
20446;DHT22;10382;49.140;9.234;2023-04-06T13:09:45;21.10;32.80
20446;DHT22;10382;49.140;9.234;2023-04-06T13:12:12;20.50;32.70
20446;DHT22;10382;49.140;9.234;2023-04-06T13:14:40;20.00;32.20
20446;DHT22;10382;49.140;9.234;2023-04-06T13:17:07;20.00;33.40
20446;DHT22;10382;49.140;9.234;2023-04-06T13:19:35;20.40;33.60
20446;DHT22;10382;49.140;9.234;2023-04-06T13:22:02;20.80;32.50
20446;DHT22;10382;49.140;9.234;2023-04-06T13:24:29;21.10;33.10
20446;DHT22;10382;49.140;9.234;2023-04-06T13:26:56;21.40;32.40
20446;DHT22;10382;49.140;9.234;2023-04-06T13:29:23;21.60;32.70
20446;DHT22;10382;49.140;9.234;2023-04-06T13:31:50;21.90;32.50
20446;DHT22;10382;49.140;9.234;2023-04-06T13:34:16;21.70;32.00
20446;DHT22;10382;49.140;9.234;2023-04-06T13:36:45;20.60;31.90
20446;DHT22;10382;49.140;9.234;2023-04-06T13:39:12;19.70;32.80
20446;DHT22;10382;49.140;9.234;2023-04-06T13:41:39;19.40;33.30
20446;DHT22;10382;49.140;9.234;2023-04-06T13:44:06;19.20;33.30
20446;DHT22;10382;49.140;9.234;2023-04-06T13:46:33;19.10;34.10
20446;DHT22;10382;49.140;9.234;2023-04-06T13:49:00;18.80;33.40
20446;DHT22;10382;49.140;9.234;2023-04-06T13:51:27;18.40;33.80
20446;DHT22;10382;49.140;9.234;2023-04-06T13:53:55;18.30;34.40
20446;DHT22;10382;49.140;9.234;2023-04-06T13:56:22;18.40;34.40
20446;DHT22;10382;49.140;9.234;2023-04-06T13:58:49;18.60;34.00
20446;DHT22;10382;49.140;9.234;2023-04-06T14:01:16;18.70;34.20
20446;DHT22;10382;49.140;9.234;2023-04-06T14:03:42;18.70;35.40
20446;DHT22;10382;49.140;9.234;2023-04-06T14:06:12;18.90;34.30
20446;DHT22;10382;49.140;9.234;2023-04-06T14:08:40;18.90;34.10
20446;DHT22;10382;49.140;9.234;2023-04-06T14:11:10;18.90;34.50
20446;DHT22;10382;49.140;9.234;2023-04-06T14:13:38;19.10;34.40
20446;DHT22;10382;49.140;9.234;2023-04-06T14:16:06;19.40;33.70
20446;DHT22;10382;49.140;9.234;2023-04-06T14:18:33;19.70;34.40
20446;DHT22;10382;49.140;9.234;2023-04-06T14:21:00;20.00;34.20
20446;DHT22;10382;49.140;9.234;2023-04-06T14:23:27;20.30;33.70
20446;DHT22;10382;49.140;9.234;2023-04-06T14:26:01;20.20;33.40
20446;DHT22;10382;49.140;9.234;2023-04-06T14:28:30;20.10;32.90
20446;DHT22;10382;49.140;9.234;2023-04-06T14:30:58;19.50;33.40
20446;DHT22;10382;49.140;9.234;2023-04-06T14:33:25;18.90;33.70
20446;DHT22;10382;49.140;9.234;2023-04-06T14:35:52;18.70;34.30
20446;DHT22;10382;49.140;9.234;2023-04-06T14:38:19;18.30;34.30
20446;DHT22;10382;49.140;9.234;2023-04-06T14:40:46;18.20;34.70
20446;DHT22;10382;49.140;9.234;2023-04-06T14:43:13;18.20;34.70
20446;DHT22;10382;49.140;9.234;2023-04-06T14:45:41;18.10;35.10
20446;DHT22;10382;49.140;9.234;2023-04-06T14:48:08;18.00;34.80
20446;DHT22;10382;49.140;9.234;2023-04-06T14:50:38;18.10;35.10
20446;DHT22;10382;49.140;9.234;2023-04-06T14:53:05;18.10;35.00
20446;DHT22;10382;49.140;9.234;2023-04-06T14:55:32;18.10;35.20
20446;DHT22;10382;49.140;9.234;2023-04-06T14:57:59;17.90;35.10
20446;DHT22;10382;49.140;9.234;2023-04-06T15:00:26;18.00;35.00
20446;DHT22;10382;49.140;9.234;2023-04-06T15:02:54;18.30;35.10
20446;DHT22;10382;49.140;9.234;2023-04-06T15:05:21;18.40;34.70
20446;DHT22;10382;49.140;9.234;2023-04-06T15:07:48;18.70;35.10
20446;DHT22;10382;49.140;9.234;2023-04-06T15:10:15;18.90;35.50
20446;DHT22;10382;49.140;9.234;2023-04-06T15:12:42;19.20;34.40
20446;DHT22;10382;49.140;9.234;2023-04-06T15:15:09;19.30;34.80
20446;DHT22;10382;49.140;9.234;2023-04-06T15:17:36;19.50;34.80
20446;DHT22;10382;49.140;9.234;2023-04-06T15:20:06;19.80;34.30
20446;DHT22;10382;49.140;9.234;2023-04-06T15:22:32;19.90;34.60
20446;DHT22;10382;49.140;9.234;2023-04-06T15:24:59;19.90;34.30
20446;DHT22;10382;49.140;9.234;2023-04-06T15:27:26;19.90;34.10
20446;DHT22;10382;49.140;9.234;2023-04-06T15:29:53;19.80;33.70
20446;DHT22;10382;49.140;9.234;2023-04-06T15:32:20;19.60;33.90
20446;DHT22;10382;49.140;9.234;2023-04-06T15:34:47;19.40;34.40
20446;DHT22;10382;49.140;9.234;2023-04-06T15:37:15;19.20;34.60
20446;DHT22;10382;49.140;9.234;2023-04-06T15:39:42;19.20;35.00